Flugplatz St.Gallen-Altenrhein (LSZR)

Hier findest Du alle Informationen zum Flugplatz St.Gallen-Altenrhein (LSZR).

Informationen für Piloten zum Flugplatz St.Gallen-Altenrhein

Hier findest Du alle relevanten Informationen, die Du als Pilot benötigst, um St.Gallen-Altenrhein anzufliegen.

Flugplatz: St.Gallen-Altenrhein ICAO-Code: LSZR
Frequenz Turm: 135.425 Mhz GAFOR Gebiet: -
Frequenz Ground: 121.800 Mhz Mogas: nein
Platzrunde: N 2300 ft Landegebühr: -
Platzhöhe: Sunrise: 03:31 Uhr UTC
Pisten: 10/28 - 1300 m x 40 m, ASPH Sunset: 19:05 Uhr UTC

Mitglieder, die in St.Gallen-Altenrhein fliegen

Flugwetter am Flugplatz St.Gallen-Altenrhein

Die METAR Information stammen aus EDNY (20.89 km entfernt).

METAR Code:
2020/05/24 12:50
EDNY 241250Z 22007KT 9999 FEW040 17/05 Q1031

Flugschulen am Flugplatz St.Gallen-Altenrhein

Am Flugplatz St.Gallen-Altenrhein gibt es leider keine Flugschule.

Benachbarte Flugplätze und Flugschulen

Es gibt 8 weitere Flugplätze in einem Umkreis von 50 km um den Flugplatz St.Gallen-Altenrhein.

Jetzt anmelden

Passwort vergessen

Umfrage Archiv

Wären Rettungsgeräte keine Pflicht mehr, würdet Ihr Euer UL trotzdem mit einem ausstatten?

Ja
78.5 %
Nein
21.5 %
Stimmen: 107 | Diskussion
Anzeige: Roland Aircraft
Statistik Alle Mitglieder

Aktuell sind 36 Besucher online, davon 4 Mitglieder und 32 Gäste.


Mitglieder online:
McLean  wosx  suchoi27  Steffen_E 

Anzeige: VFR Sprechfunk Simulator


Anzeige: Pocket FMS